createdAt,value
2019-01-22T00:01:04.202Z,45.00
2019-01-22T00:03:33.380Z,45.10
2019-01-22T00:06:02.611Z,45.00
2019-01-22T00:08:31.818Z,45.00
2019-01-22T00:11:01.045Z,44.90
2019-01-22T00:13:30.257Z,44.90
2019-01-22T00:15:59.411Z,44.90
2019-01-22T00:18:28.630Z,45.00
2019-01-22T00:20:57.858Z,45.00
2019-01-22T00:23:27.361Z,45.10
2019-01-22T00:25:56.580Z,45.10
2019-01-22T00:28:25.730Z,45.00
2019-01-22T00:30:54.894Z,45.00
2019-01-22T00:33:24.173Z,45.10
2019-01-22T00:35:53.749Z,45.10
2019-01-22T00:38:22.985Z,45.00
2019-01-22T00:40:52.244Z,45.00
2019-01-22T00:43:21.408Z,45.00
2019-01-22T00:45:50.636Z,45.00
2019-01-22T00:48:19.837Z,45.00
2019-01-22T00:50:49.354Z,45.00
2019-01-22T00:53:18.609Z,45.10
2019-01-22T00:55:47.762Z,45.00
2019-01-22T00:58:17.283Z,45.00
2019-01-22T01:00:46.500Z,45.00
2019-01-22T01:03:16.001Z,45.00
2019-01-22T01:05:45.224Z,45.00
2019-01-22T01:08:14.393Z,45.00
2019-01-22T01:10:43.598Z,45.00
2019-01-22T01:13:12.879Z,45.00
2019-01-22T01:15:42.023Z,45.00
2019-01-22T01:18:11.861Z,45.00
2019-01-22T01:20:41.060Z,45.00
2019-01-22T01:23:16.629Z,45.00
2019-01-22T01:25:41.061Z,45.00
2019-01-22T01:28:10.269Z,44.90
2019-01-22T01:30:39.437Z,44.90
2019-01-22T01:33:08.701Z,45.00
2019-01-22T01:35:37.870Z,44.80
2019-01-22T01:38:07.110Z,44.90
2019-01-22T01:40:36.307Z,44.90
2019-01-22T01:43:05.511Z,44.90
2019-01-22T01:45:34.758Z,44.90
2019-01-22T01:48:04.026Z,44.90
2019-01-22T01:50:33.245Z,44.90
2019-01-22T01:53:02.781Z,44.90
2019-01-22T01:55:31.939Z,44.90
2019-01-22T01:58:01.652Z,44.90
2019-01-22T02:00:31.150Z,44.90
2019-01-22T02:03:00.336Z,44.80
2019-01-22T02:05:29.930Z,44.90
2019-01-22T02:07:59.129Z,44.90
2019-01-22T02:10:28.365Z,44.80
2019-01-22T02:13:19.210Z,44.90
2019-01-22T02:16:28.733Z,44.90
2019-01-22T02:19:24.229Z,44.90
2019-01-22T02:22:08.730Z,44.90
2019-01-22T02:25:23.932Z,44.80
2019-01-22T02:28:39.180Z,44.90
2019-01-22T02:31:49.579Z,44.80
2019-01-22T02:34:47.076Z,44.90
2019-01-22T02:37:52.049Z,44.80
2019-01-22T02:40:54.153Z,44.80
2019-01-22T02:43:54.447Z,44.80
2019-01-22T02:46:35.953Z,44.80
2019-01-22T02:50:04.579Z,44.80
2019-01-22T02:52:55.647Z,44.80
2019-01-22T02:55:40.273Z,44.90
2019-01-22T02:58:34.323Z,44.80
2019-01-22T03:01:50.714Z,44.90
2019-01-22T03:04:50.714Z,44.80
2019-01-22T03:07:36.273Z,44.70
2019-01-22T03:10:45.949Z,44.80
2019-01-22T03:14:02.094Z,44.80
2019-01-22T03:17:03.648Z,44.80
2019-01-22T03:19:45.947Z,44.90
2019-01-22T03:22:28.693Z,44.90
2019-01-22T03:25:17.850Z,44.70
2019-01-22T03:28:14.748Z,44.80
2019-01-22T03:31:37.676Z,44.80
2019-01-22T03:34:54.075Z,45.40
2019-01-22T03:38:13.966Z,44.80
2019-01-22T03:41:02.489Z,44.80
2019-01-22T03:43:41.428Z,44.80
2019-01-22T03:46:46.363Z,44.80
2019-01-22T03:49:30.310Z,44.80
2019-01-22T03:52:39.387Z,44.80
2019-01-22T03:55:37.872Z,44.80
2019-01-22T03:58:11.770Z,44.80
2019-01-22T04:01:27.504Z,44.80
2019-01-22T04:03:56.832Z,44.80
2019-01-22T04:06:29.585Z,44.70
2019-01-22T04:09:01.671Z,44.80
2019-01-22T04:11:38.365Z,44.80
2019-01-22T04:14:07.545Z,44.80
2019-01-22T04:16:36.758Z,44.80
2019-01-22T04:19:05.968Z,44.80
2019-01-22T04:21:43.655Z,44.80
2019-01-22T04:24:59.570Z,44.80
2019-01-22T04:27:41.354Z,44.80
2019-01-22T04:30:45.766Z,44.80
2019-01-22T04:34:26.652Z,44.70
2019-01-22T04:37:35.482Z,44.70
2019-01-22T04:40:38.547Z,44.80
2019-01-22T04:43:22.567Z,44.80
2019-01-22T04:46:11.865Z,44.80
2019-01-22T04:49:09.545Z,44.80
2019-01-22T04:51:50.406Z,45.10
2019-01-22T04:54:27.934Z,44.40
2019-01-22T04:57:36.217Z,45.00
2019-01-22T05:00:48.684Z,44.50
2019-01-22T05:03:53.785Z,46.20
2019-01-22T05:07:04.275Z,46.60
2019-01-22T05:10:04.331Z,46.50
2019-01-22T05:12:55.014Z,47.00
2019-01-22T05:15:53.854Z,47.20
2019-01-22T05:18:49.387Z,46.50
2019-01-22T05:21:56.965Z,46.30
2019-01-22T05:24:48.218Z,46.30
2019-01-22T05:27:32.733Z,46.10
2019-01-22T05:30:30.623Z,46.00
2019-01-22T05:33:38.205Z,45.90
2019-01-22T05:36:47.275Z,45.70
2019-01-22T05:39:45.377Z,45.70
2019-01-22T05:42:43.790Z,45.60
2019-01-22T05:46:12.361Z,45.40
2019-01-22T05:49:16.184Z,45.30
2019-01-22T05:52:11.950Z,45.20
2019-01-22T05:55:02.545Z,45.20
2019-01-22T05:57:58.654Z,45.40
2019-01-22T06:00:54.686Z,45.40
2019-01-22T06:04:04.818Z,45.30
2019-01-22T06:07:31.977Z,45.20
2019-01-22T06:10:54.651Z,45.10
2019-01-22T06:13:39.010Z,45.00
2019-01-22T06:16:33.552Z,45.00
2019-01-22T06:19:33.620Z,45.00
2019-01-22T06:22:39.842Z,44.90
2019-01-22T06:25:28.554Z,45.10
2019-01-22T06:28:08.881Z,45.70
2019-01-22T06:31:34.500Z,45.40
2019-01-22T06:34:49.097Z,45.50
2019-01-22T06:37:50.004Z,45.70
2019-01-22T06:40:44.521Z,45.70
2019-01-22T06:44:00.898Z,45.80
2019-01-22T06:47:02.625Z,45.70
2019-01-22T06:50:03.056Z,45.90
2019-01-22T06:53:00.174Z,45.90
2019-01-22T06:55:43.601Z,45.70
2019-01-22T06:58:48.110Z,45.70
2019-01-22T07:02:01.942Z,45.60
2019-01-22T07:04:49.293Z,45.60
2019-01-22T07:07:58.219Z,45.50
2019-01-22T07:10:45.947Z,45.40
2019-01-22T07:13:53.377Z,45.40
2019-01-22T07:16:39.042Z,45.30
2019-01-22T07:19:47.082Z,45.30
2019-01-22T07:23:00.460Z,45.40
2019-01-22T07:26:23.248Z,45.20
2019-01-22T07:29:24.401Z,45.20
2019-01-22T07:32:25.090Z,45.10
2019-01-22T07:35:13.069Z,45.00
2019-01-22T07:37:48.008Z,45.00
2019-01-22T07:41:09.763Z,45.00
2019-01-22T07:43:56.901Z,44.90
2019-01-22T07:47:12.358Z,44.90
2019-01-22T07:50:12.502Z,44.90
2019-01-22T07:53:01.286Z,44.80
2019-01-22T07:55:51.106Z,44.90
2019-01-22T07:58:56.977Z,44.90
2019-01-22T08:02:06.793Z,44.80
2019-01-22T08:05:16.027Z,44.80
2019-01-22T08:08:39.615Z,44.80
2019-01-22T08:11:50.357Z,44.80
2019-01-22T08:15:18.742Z,44.80
2019-01-22T08:18:20.432Z,44.80
2019-01-22T08:21:22.421Z,44.90
2019-01-22T08:24:32.822Z,44.80
2019-01-22T08:27:38.242Z,44.80
2019-01-22T08:30:33.289Z,44.80
2019-01-22T08:33:51.353Z,44.70
2019-01-22T08:36:49.842Z,44.70
2019-01-22T08:40:00.269Z,44.70
2019-01-22T08:43:19.450Z,44.70
2019-01-22T08:46:31.563Z,44.60
2019-01-22T08:49:32.571Z,44.50
2019-01-22T08:52:35.870Z,44.50
2019-01-22T08:55:49.497Z,44.50
2019-01-22T08:58:46.315Z,44.50
2019-01-22T09:01:35.881Z,44.50
2019-01-22T09:05:04.164Z,44.50
2019-01-22T09:08:23.134Z,44.40
2019-01-22T09:11:29.614Z,44.50
2019-01-22T09:14:25.920Z,44.50
2019-01-22T09:17:48.402Z,44.50
2019-01-22T09:20:27.047Z,44.40
2019-01-22T09:23:30.073Z,44.40
2019-01-22T09:26:55.667Z,44.50
2019-01-22T09:29:53.374Z,44.40
2019-01-22T09:32:52.790Z,45.00
2019-01-22T09:36:03.357Z,44.30
2019-01-22T09:38:32.533Z,44.40
2019-01-22T09:41:01.739Z,44.40
2019-01-22T09:43:30.950Z,44.20
2019-01-22T09:46:00.176Z,44.30
2019-01-22T09:48:29.475Z,44.30
2019-01-22T09:50:58.999Z,44.30
2019-01-22T09:53:28.256Z,44.30
2019-01-22T09:56:00.881Z,44.30
2019-01-22T09:58:28.362Z,44.20
2019-01-22T10:00:57.514Z,44.20
2019-01-22T10:03:26.712Z,44.20
2019-01-22T10:05:55.930Z,44.10
2019-01-22T10:08:25.099Z,44.20
2019-01-22T10:10:54.339Z,44.20
2019-01-22T10:13:23.526Z,44.20
2019-01-22T10:15:52.685Z,44.20
2019-01-22T10:18:21.952Z,44.20
2019-01-22T10:20:51.166Z,44.20
2019-01-22T10:23:20.365Z,44.20
2019-01-22T10:25:49.573Z,44.20
2019-01-22T10:28:19.713Z,44.20
2019-01-22T10:30:48.908Z,44.20
2019-01-22T10:33:18.074Z,44.20
2019-01-22T10:35:47.277Z,44.20
2019-01-22T10:38:16.471Z,44.20
2019-01-22T10:40:45.666Z,44.20
2019-01-22T10:43:14.913Z,44.20
2019-01-22T10:45:44.145Z,44.20
2019-01-22T10:48:13.327Z,44.20
2019-01-22T10:50:42.523Z,44.20
2019-01-22T10:53:11.693Z,44.20
2019-01-22T10:55:40.890Z,44.20
2019-01-22T10:58:10.143Z,44.20
2019-01-22T11:00:39.453Z,44.30
2019-01-22T11:03:08.953Z,44.20
2019-01-22T11:05:40.379Z,44.20
2019-01-22T11:08:09.573Z,44.20
2019-01-22T11:10:38.726Z,44.20
2019-01-22T11:13:08.614Z,44.20
2019-01-22T11:15:37.781Z,44.20
2019-01-22T11:18:07.378Z,44.20
2019-01-22T11:20:36.570Z,44.20
2019-01-22T11:23:05.874Z,44.10
2019-01-22T11:25:43.318Z,44.20
2019-01-22T11:28:07.485Z,44.20
2019-01-22T11:30:36.655Z,44.60
2019-01-22T11:33:05.827Z,44.20
2019-01-22T11:35:35.033Z,44.20
2019-01-22T11:38:04.223Z,44.20
2019-01-22T11:40:39.468Z,44.20
2019-01-22T11:43:08.698Z,44.20
2019-01-22T11:45:37.807Z,44.20
2019-01-22T11:48:09.333Z,44.10
2019-01-22T11:50:38.544Z,44.10
2019-01-22T11:53:07.822Z,43.90
2019-01-22T11:55:37.035Z,44.20
2019-01-22T11:58:06.262Z,44.20
2019-01-22T12:00:45.154Z,44.10
2019-01-22T12:03:14.373Z,44.90
2019-01-22T12:05:43.554Z,44.20
2019-01-22T12:08:12.737Z,44.20
2019-01-22T12:10:41.924Z,44.20
2019-01-22T12:13:11.198Z,44.30
2019-01-22T12:15:40.407Z,44.20
2019-01-22T12:18:09.603Z,44.20
2019-01-22T12:20:39.288Z,44.20
2019-01-22T12:23:08.606Z,44.20
2019-01-22T12:25:37.827Z,44.20
2019-01-22T12:28:06.981Z,44.20
2019-01-22T12:30:37.021Z,44.10
2019-01-22T12:33:06.589Z,44.10
2019-01-22T12:35:35.831Z,44.10
2019-01-22T12:38:05.234Z,44.10
2019-01-22T12:40:34.440Z,44.10
2019-01-22T12:43:03.667Z,44.20
2019-01-22T12:45:34.942Z,44.10
2019-01-22T12:48:04.272Z,44.10
2019-01-22T12:50:33.470Z,44.10
2019-01-22T12:53:02.660Z,44.10
2019-01-22T12:55:32.213Z,44.10
2019-01-22T12:58:01.374Z,44.10
2019-01-22T13:00:31.808Z,44.10
2019-01-22T13:03:01.301Z,44.00
2019-01-22T13:05:51.202Z,44.20
2019-01-22T13:08:20.436Z,44.10
2019-01-22T13:10:49.613Z,44.20
2019-01-22T13:13:18.801Z,44.10
2019-01-22T13:15:48.005Z,44.10
2019-01-22T13:18:17.188Z,44.30
2019-01-22T13:20:46.408Z,44.10
2019-01-22T13:23:15.578Z,44.20
2019-01-22T13:25:44.746Z,44.10
2019-01-22T13:28:14.256Z,44.80
2019-01-22T13:30:43.452Z,44.20
2019-01-22T13:33:12.622Z,44.10
2019-01-22T13:35:41.809Z,44.10
2019-01-22T13:38:11.072Z,44.00
2019-01-22T13:40:40.265Z,44.00
2019-01-22T13:43:09.448Z,44.00
2019-01-22T13:45:39.081Z,44.10
2019-01-22T13:48:10.838Z,44.10
2019-01-22T13:50:40.053Z,44.10
2019-01-22T13:53:09.253Z,44.00
2019-01-22T13:55:38.896Z,44.00
2019-01-22T13:58:08.085Z,44.10
2019-01-22T14:00:37.346Z,44.00
2019-01-22T14:03:06.810Z,44.00
2019-01-22T14:05:35.953Z,44.10
2019-01-22T14:08:05.211Z,44.00
2019-01-22T14:10:34.369Z,44.00
2019-01-22T14:13:03.569Z,43.90
2019-01-22T14:15:35.297Z,44.00
2019-01-22T14:18:04.533Z,44.00
2019-01-22T14:20:33.723Z,44.60
2019-01-22T14:23:03.108Z,44.00
2019-01-22T14:25:32.298Z,44.00
2019-01-22T14:28:01.576Z,44.10
2019-01-22T14:30:32.998Z,44.00
2019-01-22T14:33:02.175Z,44.10
2019-01-22T14:35:31.389Z,44.10
2019-01-22T14:38:00.581Z,44.20
2019-01-22T14:40:29.706Z,44.10
2019-01-22T14:42:58.882Z,43.90
2019-01-22T14:45:28.079Z,44.10
2019-01-22T14:47:57.269Z,44.20
2019-01-22T14:50:27.758Z,44.10
2019-01-22T14:52:56.926Z,44.10
2019-01-22T14:55:26.153Z,44.10
2019-01-22T14:57:55.313Z,44.10
2019-01-22T15:00:26.183Z,44.10
2019-01-22T15:02:56.429Z,44.10
2019-01-22T15:05:25.521Z,44.10
2019-01-22T15:07:54.706Z,44.00
2019-01-22T15:10:23.910Z,44.00
2019-01-22T15:12:55.565Z,44.00
2019-01-22T15:15:24.745Z,44.00
2019-01-22T15:17:53.934Z,44.00
2019-01-22T15:20:24.600Z,44.00
2019-01-22T15:22:53.781Z,44.00
2019-01-22T15:25:23.011Z,43.90
2019-01-22T15:27:52.196Z,44.00
2019-01-22T15:30:24.138Z,43.90
2019-01-22T15:32:53.309Z,43.90
2019-01-22T15:35:22.480Z,43.90
2019-01-22T15:37:51.968Z,43.90
2019-01-22T15:40:23.606Z,44.00
2019-01-22T15:42:52.813Z,44.00
2019-01-22T15:45:23.499Z,44.00
2019-01-22T15:47:52.710Z,44.00
2019-01-22T15:50:21.905Z,43.90
2019-01-22T15:52:51.109Z,43.90
2019-01-22T15:55:28.556Z,44.10
2019-01-22T15:57:57.749Z,44.00
2019-01-22T16:00:26.886Z,44.10
2019-01-22T16:02:56.088Z,44.00
2019-01-22T16:05:25.262Z,44.00
2019-01-22T16:07:54.487Z,44.00
2019-01-22T16:10:23.650Z,44.00
2019-01-22T16:12:52.855Z,44.00
2019-01-22T16:15:22.868Z,43.90
2019-01-22T16:17:52.313Z,43.60
2019-01-22T16:20:23.460Z,43.90
2019-01-22T16:22:52.666Z,43.30
2019-01-22T16:25:21.770Z,44.00
2019-01-22T16:27:50.872Z,43.80
2019-01-22T16:30:21.922Z,47.20
2019-01-22T16:32:51.128Z,46.40
2019-01-22T16:35:21.946Z,45.90
2019-01-22T16:37:51.163Z,45.50
2019-01-22T16:40:20.397Z,45.30
2019-01-22T16:42:49.646Z,36.10
2019-01-22T16:45:21.693Z,32.40
2019-01-22T16:47:50.848Z,30.30
2019-01-22T16:50:20.057Z,35.60
2019-01-22T16:52:49.477Z,38.30
2019-01-22T16:55:30.968Z,38.60
2019-01-22T16:58:00.168Z,39.00
2019-01-22T17:00:30.806Z,39.40
2019-01-22T17:03:00.022Z,38.80
2019-01-22T17:05:29.273Z,38.60
2019-01-22T17:07:58.448Z,38.80
2019-01-22T17:10:27.635Z,39.80
2019-01-22T17:12:56.825Z,39.60
2019-01-22T17:15:26.014Z,39.70
2019-01-22T17:17:55.253Z,39.30
2019-01-22T17:20:29.853Z,39.20
2019-01-22T17:23:02.274Z,39.10
2019-01-22T17:25:29.921Z,39.10
2019-01-22T17:27:59.039Z,39.00
2019-01-22T17:30:30.940Z,39.00
2019-01-22T17:33:19.491Z,38.90
2019-01-22T17:35:50.498Z,38.90
2019-01-22T17:38:20.634Z,38.80
2019-01-22T17:40:49.841Z,39.00
2019-01-22T17:43:19.053Z,39.00
2019-01-22T17:45:48.160Z,39.20
2019-01-22T17:48:17.357Z,39.00
2019-01-22T17:50:46.594Z,38.80
2019-01-22T17:53:15.777Z,38.80
2019-01-22T17:55:44.995Z,38.90
2019-01-22T17:58:14.199Z,39.00
2019-01-22T18:00:43.484Z,39.00
2019-01-22T18:03:12.686Z,39.20
2019-01-22T18:05:41.893Z,39.20
2019-01-22T18:08:11.148Z,39.50
2019-01-22T18:10:40.379Z,39.70
2019-01-22T18:13:09.845Z,39.90
2019-01-22T18:15:39.068Z,40.00
2019-01-22T18:18:08.253Z,40.50
2019-01-22T18:20:37.406Z,41.00
2019-01-22T18:23:06.607Z,41.10
2019-01-22T18:25:35.761Z,41.20
2019-01-22T18:28:05.113Z,40.80
2019-01-22T18:30:34.329Z,40.90
2019-01-22T18:33:03.550Z,40.70
2019-01-22T18:35:41.114Z,40.50
2019-01-22T18:38:11.061Z,40.00
2019-01-22T18:40:40.262Z,40.10
2019-01-22T18:43:09.482Z,40.40
2019-01-22T18:45:38.612Z,40.30
2019-01-22T18:48:08.365Z,40.10
2019-01-22T18:50:37.581Z,40.50
2019-01-22T18:53:09.116Z,40.30
2019-01-22T18:55:38.285Z,40.00
2019-01-22T18:58:07.615Z,40.00
2019-01-22T19:00:36.793Z,39.70
2019-01-22T19:03:06.041Z,39.70
2019-01-22T19:05:35.202Z,39.50
2019-01-22T19:08:04.435Z,40.10
2019-01-22T19:10:33.732Z,39.50
2019-01-22T19:13:02.948Z,39.40
2019-01-22T19:15:32.146Z,39.40
2019-01-22T19:18:01.642Z,39.40
2019-01-22T19:20:31.006Z,39.40
2019-01-22T19:23:00.711Z,39.40
2019-01-22T19:25:29.981Z,39.60
2019-01-22T19:28:02.283Z,39.90
2019-01-22T19:30:31.880Z,40.00
2019-01-22T19:33:01.114Z,40.10
2019-01-22T19:35:30.389Z,40.20
2019-01-22T19:38:01.266Z,40.50
2019-01-22T19:40:30.558Z,40.80
2019-01-22T19:43:01.076Z,40.70
2019-01-22T19:45:32.583Z,41.40
2019-01-22T19:48:01.943Z,41.70
2019-01-22T19:50:31.221Z,41.70
2019-01-22T19:53:00.482Z,41.80
2019-01-22T19:55:29.618Z,41.80
2019-01-22T19:57:58.849Z,41.80
2019-01-22T20:00:33.587Z,41.60
2019-01-22T20:03:02.838Z,41.40
2019-01-22T20:05:32.068Z,41.00
2019-01-22T20:08:01.625Z,41.30
2019-01-22T20:10:30.839Z,41.00
2019-01-22T20:13:00.110Z,40.90
2019-01-22T20:15:29.525Z,40.80
2019-01-22T20:17:58.786Z,40.70
2019-01-22T20:20:28.367Z,40.70
2019-01-22T20:22:57.582Z,40.50
2019-01-22T20:25:26.872Z,40.70
2019-01-22T20:27:56.783Z,40.60
2019-01-22T20:30:28.430Z,40.90
2019-01-22T20:32:57.698Z,41.10
2019-01-22T20:35:27.075Z,41.00
2019-01-22T20:37:56.313Z,41.00
2019-01-22T20:40:25.685Z,40.90
2019-01-22T20:42:55.282Z,41.20
2019-01-22T20:45:26.085Z,41.20
2019-01-22T20:47:55.351Z,41.40
2019-01-22T20:50:24.572Z,41.40
2019-01-22T20:52:53.886Z,41.60
2019-01-22T20:55:23.228Z,41.60
2019-01-22T20:57:54.962Z,41.80
2019-01-22T21:00:24.060Z,42.00
2019-01-22T21:02:53.322Z,42.10
2019-01-22T21:05:24.341Z,42.10
2019-01-22T21:07:53.549Z,42.10
2019-01-22T21:10:26.815Z,42.10
2019-01-22T21:12:56.291Z,42.20
2019-01-22T21:15:25.519Z,42.20
2019-01-22T21:17:54.735Z,42.20
2019-01-22T21:20:24.542Z,42.20
2019-01-22T21:22:54.202Z,42.20
2019-01-22T21:25:23.514Z,42.20
2019-01-22T21:27:53.930Z,42.30
2019-01-22T21:30:39.657Z,42.20
2019-01-22T21:33:09.788Z,42.50
2019-01-22T21:35:39.065Z,42.50
2019-01-22T21:38:08.875Z,42.70
2019-01-22T21:40:38.058Z,42.80
2019-01-22T21:43:07.575Z,42.10
2019-01-22T21:45:36.806Z,42.80
2019-01-22T21:48:06.493Z,43.00
2019-01-22T21:50:35.799Z,43.00
2019-01-22T21:53:05.523Z,43.00
2019-01-22T21:55:34.771Z,42.50
2019-01-22T21:58:08.395Z,43.10
2019-01-22T22:00:34.902Z,43.20
2019-01-22T22:03:04.127Z,43.30
2019-01-22T22:05:33.378Z,43.30
2019-01-22T22:08:02.612Z,43.30
2019-01-22T22:10:31.834Z,43.30
2019-01-22T22:13:01.102Z,43.20
2019-01-22T22:15:30.303Z,43.20
2019-01-22T22:17:59.645Z,43.20
2019-01-22T22:20:28.854Z,43.20
2019-01-22T22:22:58.062Z,43.20
2019-01-22T22:25:27.618Z,43.20
2019-01-22T22:27:56.940Z,43.20
2019-01-22T22:30:28.596Z,43.20
2019-01-22T22:32:58.705Z,43.20
2019-01-22T22:35:27.964Z,43.20
2019-01-22T22:37:57.211Z,43.20
2019-01-22T22:40:26.430Z,43.20
2019-01-22T22:42:55.698Z,43.30
2019-01-22T22:45:24.965Z,43.20
2019-01-22T22:47:54.229Z,43.20
2019-01-22T22:50:31.359Z,43.10
2019-01-22T22:53:00.578Z,43.80
2019-01-22T22:55:29.796Z,43.10
2019-01-22T22:57:59.040Z,43.10
2019-01-22T23:00:35.450Z,43.10
2019-01-22T23:03:04.767Z,43.10
2019-01-22T23:05:34.097Z,43.20
2019-01-22T23:08:03.307Z,43.20
2019-01-22T23:10:32.531Z,43.20
2019-01-22T23:13:01.767Z,43.20
2019-01-22T23:15:30.995Z,43.20
2019-01-22T23:18:00.214Z,43.10
2019-01-22T23:20:29.435Z,43.20
2019-01-22T23:22:58.635Z,43.10
2019-01-22T23:25:27.935Z,43.10
2019-01-22T23:27:57.142Z,43.10
2019-01-22T23:30:26.357Z,43.00
2019-01-22T23:32:55.682Z,43.10
2019-01-22T23:35:24.950Z,43.10
2019-01-22T23:37:54.175Z,43.20
2019-01-22T23:40:23.376Z,43.30
2019-01-22T23:42:52.589Z,43.30
2019-01-22T23:45:21.853Z,43.10
2019-01-22T23:47:51.096Z,43.40
2019-01-22T23:50:20.313Z,43.40
2019-01-22T23:52:49.539Z,43.50
2019-01-22T23:55:18.733Z,43.50
2019-01-22T23:57:47.982Z,43.50
